Jacumba, CA (91934)

3:33 AM PST on December 29, 2014 (GMT -0800)
J-town | Change Station
CLOSE
Current Station
Personal Weather Station
Location: Jacumba, CA
Elevation: 2799 ft
Nearby Weather Stations
Active Advisory: Winter Storm Watch

Elev 2799 ft 32.62 °N, 116.19 °W | Updated 2 minutes ago

Clear
Clear
23.5 °F
Feels Like 24 °F
N
0.0
Wind Variable Wind from West
Gusts 2.2 mph

Today
High -- | Low -- °F
--% Chance of Precip.
Yesterday
High -- | Low -- °F
Precip. -- in
6:46 AM 4:47 PM
First Quarter, 58% visible
Pressure 30.07 in
Visibility -9999.0 miles
Clouds
Windchill 24 °F
Dew Point 19 °F
Humidity 82%
Rainfall 0.00 in
Snow Depth Not available.
UV 0.0 out of 12
Pollen 5.50 out of 12
Air Quality Not available.
Flu Activity Not available.
METAR KCZZ 291052Z AUTO 04004KT M03/M06 A3008 RMK AO1 SLP183 T10281061

More Conditions Fewer Conditions

Pressure 30.07 in
Visibility -9999.0 miles
Clouds
Windchill 24 °F
Dew Point 19 °F
Humidity 82%
Rainfall 0.00 in
Snow Depth Not available.
UV 0.0 out of 12
Pollen 5.50 out of 12
Air Quality Not available.
Flu Activity Not available.
METAR KCZZ 291052Z AUTO 04004KT M03/M06 A3008 RMK AO1 SLP183 T10281061

More Conditions Fewer Conditions

10-Day Weather Forecast

Almanac

Astronomy

Dec. 29, 2014 Rise Set
Actual Time
Civil Twilight
Nautical Twilight
Astronomical Twilight
Moon
Length of Visible Light
Length of Day
Tomorrow will be .
, % of the Moon is Illuminated

Today's Extremes

State Highs State Lows

Community

WunderPhotos

Upload Photos

1,781,570 photos uploaded!

WunderBlogs® & News

Nearby

Air Quality

  Air Quality AQ Index Pollutant
Not available.

Snow Depth

Station Depth Elevation

Earthquake Activity

City Distance Mag. Time & Date
Minimum magnitude displayed is 2.5.

Coastal Water Temperatures

Place Temperature

Nearby Weather Stations